sensor_id;sensor_type;location;lat;lon;timestamp;P1;durP1;ratioP1;P2;durP2;ratioP2
77322;SDS011;66384;51.052;9.850;2023-03-01T00:01:53;55.30;;;14.20;;
77322;SDS011;66384;51.052;9.850;2023-03-01T00:04:22;44.40;;;12.20;;
77322;SDS011;66384;51.052;9.850;2023-03-01T00:06:52;18.80;;;8.50;;
77322;SDS011;66384;51.052;9.850;2023-03-01T00:09:21;10.80;;;5.20;;
77322;SDS011;66384;51.052;9.850;2023-03-01T00:11:50;7.50;;;4.40;;
77322;SDS011;66384;51.052;9.850;2023-03-01T00:14:19;7.30;;;4.20;;
77322;SDS011;66384;51.052;9.850;2023-03-01T00:16:50;7.80;;;4.40;;
77322;SDS011;66384;51.052;9.850;2023-03-01T00:19:19;6.30;;;3.90;;
77322;SDS011;66384;51.052;9.850;2023-03-01T00:21:49;6.30;;;3.80;;
77322;SDS011;66384;51.052;9.850;2023-03-01T00:24:18;5.70;;;3.90;;
77322;SDS011;66384;51.052;9.850;2023-03-01T00:26:48;5.60;;;3.60;;
77322;SDS011;66384;51.052;9.850;2023-03-01T00:29:19;4.80;;;3.20;;
77322;SDS011;66384;51.052;9.850;2023-03-01T00:31:49;5.90;;;3.70;;
77322;SDS011;66384;51.052;9.850;2023-03-01T00:34:18;6.70;;;4.00;;
77322;SDS011;66384;51.052;9.850;2023-03-01T00:36:47;4.40;;;2.90;;
77322;SDS011;66384;51.052;9.850;2023-03-01T00:39:17;6.10;;;3.60;;
77322;SDS011;66384;51.052;9.850;2023-03-01T00:41:46;6.80;;;3.40;;
77322;SDS011;66384;51.052;9.850;2023-03-01T00:44:16;5.20;;;3.40;;
77322;SDS011;66384;51.052;9.850;2023-03-01T00:46:45;5.40;;;3.40;;
77322;SDS011;66384;51.052;9.850;2023-03-01T00:49:14;7.40;;;3.30;;
77322;SDS011;66384;51.052;9.850;2023-03-01T00:51:43;5.10;;;3.10;;
77322;SDS011;66384;51.052;9.850;2023-03-01T00:54:13;5.10;;;2.90;;
77322;SDS011;66384;51.052;9.850;2023-03-01T00:56:42;4.50;;;2.90;;
77322;SDS011;66384;51.052;9.850;2023-03-01T00:59:11;6.20;;;3.10;;
77322;SDS011;66384;51.052;9.850;2023-03-01T01:01:40;6.60;;;3.80;;
77322;SDS011;66384;51.052;9.850;2023-03-01T01:04:11;5.70;;;3.30;;
77322;SDS011;66384;51.052;9.850;2023-03-01T01:06:41;5.80;;;3.40;;
77322;SDS011;66384;51.052;9.850;2023-03-01T01:09:13;6.30;;;3.20;;
77322;SDS011;66384;51.052;9.850;2023-03-01T01:11:44;6.70;;;2.80;;
77322;SDS011;66384;51.052;9.850;2023-03-01T01:14:16;5.20;;;3.20;;
77322;SDS011;66384;51.052;9.850;2023-03-01T01:16:46;5.00;;;3.00;;
77322;SDS011;66384;51.052;9.850;2023-03-01T01:19:16;4.40;;;2.90;;
77322;SDS011;66384;51.052;9.850;2023-03-01T01:21:45;5.20;;;3.00;;
77322;SDS011;66384;51.052;9.850;2023-03-01T01:24:15;4.80;;;3.10;;
77322;SDS011;66384;51.052;9.850;2023-03-01T01:26:45;3.50;;;2.20;;
77322;SDS011;66384;51.052;9.850;2023-03-01T01:29:14;4.80;;;3.40;;
77322;SDS011;66384;51.052;9.850;2023-03-01T01:31:44;4.70;;;3.60;;
77322;SDS011;66384;51.052;9.850;2023-03-01T01:34:14;5.60;;;3.70;;
77322;SDS011;66384;51.052;9.850;2023-03-01T01:36:48;6.20;;;3.90;;
77322;SDS011;66384;51.052;9.850;2023-03-01T01:39:19;5.90;;;4.00;;
77322;SDS011;66384;51.052;9.850;2023-03-01T01:41:49;6.20;;;3.20;;
77322;SDS011;66384;51.052;9.850;2023-03-01T01:44:19;4.60;;;3.30;;
77322;SDS011;66384;51.052;9.850;2023-03-01T01:46:50;7.30;;;4.20;;
77322;SDS011;66384;51.052;9.850;2023-03-01T01:49:27;7.60;;;4.50;;
77322;SDS011;66384;51.052;9.850;2023-03-01T01:52:04;10.50;;;4.80;;
77322;SDS011;66384;51.052;9.850;2023-03-01T01:54:40;6.00;;;3.70;;
77322;SDS011;66384;51.052;9.850;2023-03-01T01:57:14;5.80;;;3.70;;
77322;SDS011;66384;51.052;9.850;2023-03-01T01:59:47;6.80;;;4.30;;
77322;SDS011;66384;51.052;9.850;2023-03-01T02:02:20;6.10;;;3.60;;
77322;SDS011;66384;51.052;9.850;2023-03-01T02:04:52;6.70;;;4.00;;
77322;SDS011;66384;51.052;9.850;2023-03-01T02:07:30;6.00;;;3.70;;
77322;SDS011;66384;51.052;9.850;2023-03-01T02:09:59;9.40;;;4.10;;
77322;SDS011;66384;51.052;9.850;2023-03-01T02:12:29;8.10;;;4.20;;
77322;SDS011;66384;51.052;9.850;2023-03-01T02:15:00;7.30;;;4.20;;
77322;SDS011;66384;51.052;9.850;2023-03-01T02:17:29;6.30;;;4.10;;
77322;SDS011;66384;51.052;9.850;2023-03-01T02:20:03;6.50;;;3.70;;
77322;SDS011;66384;51.052;9.850;2023-03-01T02:22:42;8.70;;;3.70;;
77322;SDS011;66384;51.052;9.850;2023-03-01T02:25:20;6.90;;;4.00;;
77322;SDS011;66384;51.052;9.850;2023-03-01T02:27:55;7.10;;;3.30;;
77322;SDS011;66384;51.052;9.850;2023-03-01T02:30:31;7.00;;;3.40;;
77322;SDS011;66384;51.052;9.850;2023-03-01T02:33:01;5.40;;;2.90;;
77322;SDS011;66384;51.052;9.850;2023-03-01T02:35:32;6.60;;;3.50;;
77322;SDS011;66384;51.052;9.850;2023-03-01T02:38:06;6.80;;;3.30;;
77322;SDS011;66384;51.052;9.850;2023-03-01T02:40:36;5.20;;;3.50;;
77322;SDS011;66384;51.052;9.850;2023-03-01T02:45:36;4.40;;;2.70;;
77322;SDS011;66384;51.052;9.850;2023-03-01T02:48:10;5.40;;;2.90;;
77322;SDS011;66384;51.052;9.850;2023-03-01T02:50:46;4.70;;;2.80;;
77322;SDS011;66384;51.052;9.850;2023-03-01T02:53:30;5.00;;;3.20;;
77322;SDS011;66384;51.052;9.850;2023-03-01T02:56:06;4.30;;;2.80;;
77322;SDS011;66384;51.052;9.850;2023-03-01T02:58:39;5.70;;;3.30;;
77322;SDS011;66384;51.052;9.850;2023-03-01T03:01:14;5.00;;;3.30;;
77322;SDS011;66384;51.052;9.850;2023-03-01T03:03:43;5.00;;;3.00;;
77322;SDS011;66384;51.052;9.850;2023-03-01T03:06:13;4.50;;;3.20;;
77322;SDS011;66384;51.052;9.850;2023-03-01T03:08:42;5.40;;;2.90;;
77322;SDS011;66384;51.052;9.850;2023-03-01T03:11:12;4.20;;;2.80;;
77322;SDS011;66384;51.052;9.850;2023-03-01T03:13:41;4.70;;;3.20;;
77322;SDS011;66384;51.052;9.850;2023-03-01T03:16:14;5.40;;;2.90;;
77322;SDS011;66384;51.052;9.850;2023-03-01T03:18:43;5.90;;;3.10;;
77322;SDS011;66384;51.052;9.850;2023-03-01T03:21:13;5.80;;;2.60;;
77322;SDS011;66384;51.052;9.850;2023-03-01T03:23:43;6.40;;;3.60;;
77322;SDS011;66384;51.052;9.850;2023-03-01T03:26:12;5.30;;;3.10;;
77322;SDS011;66384;51.052;9.850;2023-03-01T03:28:41;5.00;;;3.30;;
77322;SDS011;66384;51.052;9.850;2023-03-01T03:31:11;8.10;;;3.40;;
77322;SDS011;66384;51.052;9.850;2023-03-01T03:33:40;6.80;;;3.20;;
77322;SDS011;66384;51.052;9.850;2023-03-01T03:36:10;4.60;;;2.70;;
77322;SDS011;66384;51.052;9.850;2023-03-01T03:38:45;6.10;;;3.20;;
77322;SDS011;66384;51.052;9.850;2023-03-01T03:41:15;5.40;;;3.00;;
77322;SDS011;66384;51.052;9.850;2023-03-01T03:43:45;6.40;;;3.10;;
77322;SDS011;66384;51.052;9.850;2023-03-01T03:46:15;5.00;;;3.20;;
77322;SDS011;66384;51.052;9.850;2023-03-01T03:48:44;6.20;;;3.40;;
77322;SDS011;66384;51.052;9.850;2023-03-01T03:51:16;4.00;;;2.40;;
77322;SDS011;66384;51.052;9.850;2023-03-01T03:53:46;8.10;;;3.70;;
77322;SDS011;66384;51.052;9.850;2023-03-01T03:56:15;6.10;;;3.30;;
77322;SDS011;66384;51.052;9.850;2023-03-01T03:58:45;6.60;;;3.80;;
77322;SDS011;66384;51.052;9.850;2023-03-01T04:01:14;5.80;;;3.00;;
77322;SDS011;66384;51.052;9.850;2023-03-01T04:03:44;6.30;;;3.70;;
77322;SDS011;66384;51.052;9.850;2023-03-01T04:06:13;5.70;;;3.40;;
77322;SDS011;66384;51.052;9.850;2023-03-01T04:08:43;5.70;;;3.80;;
77322;SDS011;66384;51.052;9.850;2023-03-01T04:11:12;6.30;;;3.80;;
77322;SDS011;66384;51.052;9.850;2023-03-01T04:13:54;5.30;;;3.10;;
77322;SDS011;66384;51.052;9.850;2023-03-01T04:16:25;5.50;;;3.30;;
77322;SDS011;66384;51.052;9.850;2023-03-01T04:18:54;4.70;;;3.30;;
77322;SDS011;66384;51.052;9.850;2023-03-01T04:21:26;5.20;;;3.40;;
77322;SDS011;66384;51.052;9.850;2023-03-01T04:23:55;6.70;;;3.90;;
77322;SDS011;66384;51.052;9.850;2023-03-01T04:26:24;6.20;;;3.70;;
77322;SDS011;66384;51.052;9.850;2023-03-01T04:28:54;6.90;;;3.40;;
77322;SDS011;66384;51.052;9.850;2023-03-01T04:31:24;7.30;;;3.60;;
77322;SDS011;66384;51.052;9.850;2023-03-01T04:33:54;4.60;;;3.00;;
77322;SDS011;66384;51.052;9.850;2023-03-01T04:36:24;5.90;;;3.20;;
77322;SDS011;66384;51.052;9.850;2023-03-01T04:41:23;5.10;;;2.90;;
77322;SDS011;66384;51.052;9.850;2023-03-01T04:43:53;5.50;;;3.30;;
77322;SDS011;66384;51.052;9.850;2023-03-01T04:46:22;7.20;;;3.70;;
77322;SDS011;66384;51.052;9.850;2023-03-01T04:48:52;6.60;;;3.20;;
77322;SDS011;66384;51.052;9.850;2023-03-01T04:51:21;6.60;;;3.40;;
77322;SDS011;66384;51.052;9.850;2023-03-01T04:53:51;8.00;;;3.80;;
77322;SDS011;66384;51.052;9.850;2023-03-01T04:56:20;5.70;;;3.50;;
77322;SDS011;66384;51.052;9.850;2023-03-01T04:58:52;6.30;;;3.50;;
77322;SDS011;66384;51.052;9.850;2023-03-01T05:01:22;4.60;;;2.90;;
77322;SDS011;66384;51.052;9.850;2023-03-01T05:03:51;4.70;;;3.10;;
77322;SDS011;66384;51.052;9.850;2023-03-01T05:06:21;6.80;;;3.40;;
77322;SDS011;66384;51.052;9.850;2023-03-01T05:08:50;5.90;;;3.50;;
77322;SDS011;66384;51.052;9.850;2023-03-01T05:11:19;4.90;;;3.20;;
77322;SDS011;66384;51.052;9.850;2023-03-01T05:13:49;5.00;;;3.10;;
77322;SDS011;66384;51.052;9.850;2023-03-01T05:16:21;5.20;;;2.90;;
77322;SDS011;66384;51.052;9.850;2023-03-01T05:18:50;6.60;;;3.50;;
77322;SDS011;66384;51.052;9.850;2023-03-01T05:21:22;6.40;;;3.60;;
77322;SDS011;66384;51.052;9.850;2023-03-01T05:23:52;5.30;;;2.60;;
77322;SDS011;66384;51.052;9.850;2023-03-01T05:26:22;7.40;;;3.00;;
77322;SDS011;66384;51.052;9.850;2023-03-01T05:28:55;5.00;;;2.60;;
77322;SDS011;66384;51.052;9.850;2023-03-01T05:31:25;6.40;;;2.90;;
77322;SDS011;66384;51.052;9.850;2023-03-01T05:33:54;6.00;;;3.20;;
77322;SDS011;66384;51.052;9.850;2023-03-01T05:36:24;7.30;;;3.30;;
77322;SDS011;66384;51.052;9.850;2023-03-01T05:38:53;6.00;;;3.30;;
77322;SDS011;66384;51.052;9.850;2023-03-01T05:41:22;5.80;;;3.40;;
77322;SDS011;66384;51.052;9.850;2023-03-01T05:43:52;5.80;;;3.40;;
77322;SDS011;66384;51.052;9.850;2023-03-01T05:46:21;5.10;;;3.10;;
77322;SDS011;66384;51.052;9.850;2023-03-01T05:48:50;6.50;;;3.80;;
77322;SDS011;66384;51.052;9.850;2023-03-01T05:51:20;5.30;;;3.50;;
77322;SDS011;66384;51.052;9.850;2023-03-01T05:53:49;5.40;;;3.70;;
77322;SDS011;66384;51.052;9.850;2023-03-01T05:56:19;6.50;;;3.70;;
77322;SDS011;66384;51.052;9.850;2023-03-01T05:58:49;6.80;;;3.70;;
77322;SDS011;66384;51.052;9.850;2023-03-01T06:01:19;5.60;;;3.60;;
77322;SDS011;66384;51.052;9.850;2023-03-01T06:03:48;9.10;;;4.40;;
77322;SDS011;66384;51.052;9.850;2023-03-01T06:06:17;6.90;;;3.70;;
77322;SDS011;66384;51.052;9.850;2023-03-01T06:08:47;4.40;;;3.00;;
77322;SDS011;66384;51.052;9.850;2023-03-01T06:11:16;5.50;;;3.10;;
77322;SDS011;66384;51.052;9.850;2023-03-01T06:13:46;7.50;;;3.40;;
77322;SDS011;66384;51.052;9.850;2023-03-01T06:16:16;4.90;;;2.80;;
77322;SDS011;66384;51.052;9.850;2023-03-01T06:18:45;8.50;;;3.50;;
77322;SDS011;66384;51.052;9.850;2023-03-01T06:21:14;6.90;;;3.50;;
77322;SDS011;66384;51.052;9.850;2023-03-01T06:23:44;8.10;;;4.60;;
77322;SDS011;66384;51.052;9.850;2023-03-01T06:26:13;8.20;;;4.30;;
77322;SDS011;66384;51.052;9.850;2023-03-01T06:28:42;7.70;;;4.10;;
77322;SDS011;66384;51.052;9.850;2023-03-01T06:31:13;8.30;;;3.50;;
77322;SDS011;66384;51.052;9.850;2023-03-01T06:33:42;7.20;;;3.70;;
77322;SDS011;66384;51.052;9.850;2023-03-01T06:36:12;5.40;;;3.30;;
77322;SDS011;66384;51.052;9.850;2023-03-01T06:38:45;6.30;;;3.90;;
77322;SDS011;66384;51.052;9.850;2023-03-01T06:41:14;7.20;;;4.90;;
77322;SDS011;66384;51.052;9.850;2023-03-01T06:43:43;9.40;;;5.60;;
77322;SDS011;66384;51.052;9.850;2023-03-01T06:46:13;7.80;;;4.90;;
77322;SDS011;66384;51.052;9.850;2023-03-01T06:48:42;16.40;;;6.30;;
77322;SDS011;66384;51.052;9.850;2023-03-01T06:51:11;9.20;;;6.00;;
77322;SDS011;66384;51.052;9.850;2023-03-01T06:53:41;9.70;;;5.60;;
77322;SDS011;66384;51.052;9.850;2023-03-01T06:56:10;8.90;;;5.10;;
77322;SDS011;66384;51.052;9.850;2023-03-01T06:58:40;10.70;;;6.50;;
77322;SDS011;66384;51.052;9.850;2023-03-01T07:01:09;11.30;;;6.20;;
77322;SDS011;66384;51.052;9.850;2023-03-01T07:03:39;18.40;;;9.10;;
77322;SDS011;66384;51.052;9.850;2023-03-01T07:08:38;21.40;;;9.80;;
77322;SDS011;66384;51.052;9.850;2023-03-01T07:11:07;14.90;;;8.30;;
77322;SDS011;66384;51.052;9.850;2023-03-01T07:13:37;12.30;;;6.20;;
77322;SDS011;66384;51.052;9.850;2023-03-01T07:16:07;16.90;;;8.60;;
77322;SDS011;66384;51.052;9.850;2023-03-01T07:18:36;14.10;;;7.40;;
77322;SDS011;66384;51.052;9.850;2023-03-01T07:21:06;16.90;;;7.90;;
77322;SDS011;66384;51.052;9.850;2023-03-01T07:23:37;14.90;;;7.20;;
77322;SDS011;66384;51.052;9.850;2023-03-01T07:26:06;16.00;;;7.80;;
77322;SDS011;66384;51.052;9.850;2023-03-01T07:28:35;14.90;;;7.60;;
77322;SDS011;66384;51.052;9.850;2023-03-01T07:31:06;11.40;;;6.20;;
77322;SDS011;66384;51.052;9.850;2023-03-01T07:33:35;12.90;;;6.20;;
77322;SDS011;66384;51.052;9.850;2023-03-01T07:36:06;12.60;;;6.80;;
77322;SDS011;66384;51.052;9.850;2023-03-01T07:38:36;9.60;;;5.20;;
77322;SDS011;66384;51.052;9.850;2023-03-01T07:41:05;9.30;;;5.00;;
77322;SDS011;66384;51.052;9.850;2023-03-01T07:43:35;18.00;;;6.50;;
77322;SDS011;66384;51.052;9.850;2023-03-01T07:46:05;11.40;;;5.40;;
77322;SDS011;66384;51.052;9.850;2023-03-01T07:48:34;11.60;;;6.00;;
77322;SDS011;66384;51.052;9.850;2023-03-01T07:51:05;24.10;;;7.90;;
77322;SDS011;66384;51.052;9.850;2023-03-01T07:53:35;15.70;;;5.60;;
77322;SDS011;66384;51.052;9.850;2023-03-01T07:56:05;15.00;;;5.40;;
77322;SDS011;66384;51.052;9.850;2023-03-01T07:58:36;11.80;;;5.30;;
77322;SDS011;66384;51.052;9.850;2023-03-01T08:01:08;9.60;;;5.00;;
77322;SDS011;66384;51.052;9.850;2023-03-01T08:03:39;11.00;;;5.20;;
77322;SDS011;66384;51.052;9.850;2023-03-01T08:06:10;8.20;;;4.50;;
77322;SDS011;66384;51.052;9.850;2023-03-01T08:08:40;9.30;;;4.20;;
77322;SDS011;66384;51.052;9.850;2023-03-01T08:11:12;9.20;;;4.90;;
77322;SDS011;66384;51.052;9.850;2023-03-01T08:13:42;7.50;;;4.40;;
77322;SDS011;66384;51.052;9.850;2023-03-01T08:16:14;7.40;;;4.10;;
77322;SDS011;66384;51.052;9.850;2023-03-01T08:18:44;10.80;;;5.00;;
77322;SDS011;66384;51.052;9.850;2023-03-01T08:21:14;8.60;;;5.00;;
77322;SDS011;66384;51.052;9.850;2023-03-01T08:23:44;7.70;;;4.40;;
77322;SDS011;66384;51.052;9.850;2023-03-01T08:26:14;7.50;;;4.50;;
77322;SDS011;66384;51.052;9.850;2023-03-01T08:28:45;6.50;;;3.70;;
77322;SDS011;66384;51.052;9.850;2023-03-01T08:31:16;6.60;;;3.40;;
77322;SDS011;66384;51.052;9.850;2023-03-01T08:33:49;5.00;;;3.40;;
77322;SDS011;66384;51.052;9.850;2023-03-01T08:36:21;7.40;;;3.60;;
77322;SDS011;66384;51.052;9.850;2023-03-01T08:38:52;15.40;;;7.80;;
77322;SDS011;66384;51.052;9.850;2023-03-01T08:41:22;7.80;;;5.70;;
77322;SDS011;66384;51.052;9.850;2023-03-01T08:43:52;7.40;;;4.20;;
77322;SDS011;66384;51.052;9.850;2023-03-01T08:46:25;13.10;;;6.00;;
77322;SDS011;66384;51.052;9.850;2023-03-01T08:48:54;8.90;;;4.70;;
77322;SDS011;66384;51.052;9.850;2023-03-01T08:51:24;5.60;;;3.60;;
77322;SDS011;66384;51.052;9.850;2023-03-01T08:53:55;6.20;;;3.60;;
77322;SDS011;66384;51.052;9.850;2023-03-01T08:56:24;7.60;;;4.40;;
77322;SDS011;66384;51.052;9.850;2023-03-01T08:58:54;6.80;;;4.10;;
77322;SDS011;66384;51.052;9.850;2023-03-01T09:01:23;8.40;;;4.50;;
77322;SDS011;66384;51.052;9.850;2023-03-01T09:03:53;7.40;;;4.50;;
77322;SDS011;66384;51.052;9.850;2023-03-01T09:06:22;6.20;;;4.20;;
77322;SDS011;66384;51.052;9.850;2023-03-01T09:08:52;6.10;;;3.60;;
77322;SDS011;66384;51.052;9.850;2023-03-01T09:11:21;4.80;;;3.80;;
77322;SDS011;66384;51.052;9.850;2023-03-01T09:13:50;5.70;;;3.50;;
77322;SDS011;66384;51.052;9.850;2023-03-01T09:16:21;8.70;;;5.00;;
77322;SDS011;66384;51.052;9.850;2023-03-01T09:18:51;7.10;;;4.10;;
77322;SDS011;66384;51.052;9.850;2023-03-01T09:21:22;10.80;;;5.80;;
77322;SDS011;66384;51.052;9.850;2023-03-01T09:23:51;4.30;;;3.00;;
77322;SDS011;66384;51.052;9.850;2023-03-01T09:26:21;8.90;;;4.70;;
77322;SDS011;66384;51.052;9.850;2023-03-01T09:28:52;8.10;;;4.20;;
77322;SDS011;66384;51.052;9.850;2023-03-01T09:31:23;7.10;;;4.30;;
77322;SDS011;66384;51.052;9.850;2023-03-01T09:33:53;11.00;;;5.40;;
77322;SDS011;66384;51.052;9.850;2023-03-01T09:36:23;10.20;;;5.70;;
77322;SDS011;66384;51.052;9.850;2023-03-01T09:38:52;8.50;;;5.40;;
77322;SDS011;66384;51.052;9.850;2023-03-01T09:44:20;8.00;;;4.80;;
77322;SDS011;66384;51.052;9.850;2023-03-01T09:46:55;6.70;;;4.40;;
77322;SDS011;66384;51.052;9.850;2023-03-01T09:49:26;11.00;;;6.00;;
77322;SDS011;66384;51.052;9.850;2023-03-01T09:51:59;8.20;;;4.50;;
77322;SDS011;66384;51.052;9.850;2023-03-01T09:54:33;9.30;;;6.80;;
77322;SDS011;66384;51.052;9.850;2023-03-01T09:57:06;9.50;;;6.30;;
77322;SDS011;66384;51.052;9.850;2023-03-01T09:59:48;7.00;;;4.90;;
77322;SDS011;66384;51.052;9.850;2023-03-01T10:02:32;6.70;;;4.40;;
77322;SDS011;66384;51.052;9.850;2023-03-01T10:05:14;6.30;;;3.90;;
77322;SDS011;66384;51.052;9.850;2023-03-01T10:08:00;7.90;;;4.50;;
77322;SDS011;66384;51.052;9.850;2023-03-01T10:10:43;10.30;;;6.30;;
77322;SDS011;66384;51.052;9.850;2023-03-01T10:13:15;11.10;;;5.20;;
77322;SDS011;66384;51.052;9.850;2023-03-01T10:15:50;8.70;;;5.20;;
77322;SDS011;66384;51.052;9.850;2023-03-01T10:18:22;8.90;;;5.40;;
77322;SDS011;66384;51.052;9.850;2023-03-01T10:20:55;7.50;;;4.40;;
77322;SDS011;66384;51.052;9.850;2023-03-01T10:23:27;9.70;;;6.00;;
77322;SDS011;66384;51.052;9.850;2023-03-01T10:28:57;9.70;;;6.20;;
77322;SDS011;66384;51.052;9.850;2023-03-01T10:31:35;9.70;;;6.40;;
77322;SDS011;66384;51.052;9.850;2023-03-01T10:34:11;10.80;;;6.80;;
77322;SDS011;66384;51.052;9.850;2023-03-01T10:36:43;9.90;;;6.30;;
77322;SDS011;66384;51.052;9.850;2023-03-01T10:39:17;8.50;;;5.40;;
77322;SDS011;66384;51.052;9.850;2023-03-01T10:41:59;8.90;;;6.10;;
77322;SDS011;66384;51.052;9.850;2023-03-01T10:44:40;8.80;;;4.80;;
77322;SDS011;66384;51.052;9.850;2023-03-01T10:47:15;9.20;;;5.50;;
77322;SDS011;66384;51.052;9.850;2023-03-01T10:49:59;7.00;;;5.10;;
77322;SDS011;66384;51.052;9.850;2023-03-01T10:52:32;11.00;;;7.30;;
77322;SDS011;66384;51.052;9.850;2023-03-01T10:55:04;7.40;;;5.50;;
77322;SDS011;66384;51.052;9.850;2023-03-01T10:57:52;8.50;;;5.50;;
77322;SDS011;66384;51.052;9.850;2023-03-01T11:00:36;8.90;;;5.50;;
77322;SDS011;66384;51.052;9.850;2023-03-01T11:03:16;9.50;;;6.70;;
77322;SDS011;66384;51.052;9.850;2023-03-01T11:05:57;7.70;;;5.60;;
77322;SDS011;66384;51.052;9.850;2023-03-01T11:08:30;7.90;;;5.00;;
77322;SDS011;66384;51.052;9.850;2023-03-01T11:11:06;8.70;;;4.70;;
77322;SDS011;66384;51.052;9.850;2023-03-01T11:13:52;7.20;;;5.00;;
77322;SDS011;66384;51.052;9.850;2023-03-01T11:16:26;9.20;;;5.20;;
77322;SDS011;66384;51.052;9.850;2023-03-01T11:18:59;10.10;;;5.90;;
77322;SDS011;66384;51.052;9.850;2023-03-01T11:21:41;12.20;;;6.80;;
77322;SDS011;66384;51.052;9.850;2023-03-01T11:24:15;12.50;;;7.20;;
77322;SDS011;66384;51.052;9.850;2023-03-01T11:26:47;9.60;;;5.60;;
77322;SDS011;66384;51.052;9.850;2023-03-01T11:29:26;6.70;;;4.90;;
77322;SDS011;66384;51.052;9.850;2023-03-01T11:32:05;7.80;;;5.40;;
77322;SDS011;66384;51.052;9.850;2023-03-01T11:34:42;7.00;;;5.10;;
77322;SDS011;66384;51.052;9.850;2023-03-01T11:37:19;7.00;;;4.90;;
77322;SDS011;66384;51.052;9.850;2023-03-01T11:40:01;8.80;;;4.90;;
77322;SDS011;66384;51.052;9.850;2023-03-01T11:42:46;8.50;;;5.60;;
77322;SDS011;66384;51.052;9.850;2023-03-01T11:45:22;6.60;;;4.70;;
77322;SDS011;66384;51.052;9.850;2023-03-01T11:47:58;8.80;;;5.80;;
77322;SDS011;66384;51.052;9.850;2023-03-01T11:50:47;8.20;;;5.00;;
77322;SDS011;66384;51.052;9.850;2023-03-01T11:53:22;7.30;;;5.00;;
77322;SDS011;66384;51.052;9.850;2023-03-01T11:56:05;8.10;;;5.60;;
77322;SDS011;66384;51.052;9.850;2023-03-01T11:58:51;8.00;;;4.90;;
77322;SDS011;66384;51.052;9.850;2023-03-01T12:01:34;6.50;;;4.30;;
77322;SDS011;66384;51.052;9.850;2023-03-01T12:04:18;6.50;;;4.40;;
77322;SDS011;66384;51.052;9.850;2023-03-01T12:07:05;5.10;;;3.90;;
77322;SDS011;66384;51.052;9.850;2023-03-01T12:09:46;8.10;;;5.60;;
77322;SDS011;66384;51.052;9.850;2023-03-01T12:12:33;7.60;;;5.20;;
77322;SDS011;66384;51.052;9.850;2023-03-01T12:15:26;8.40;;;5.40;;
77322;SDS011;66384;51.052;9.850;2023-03-01T12:18:10;8.70;;;5.40;;
77322;SDS011;66384;51.052;9.850;2023-03-01T12:20:51;7.30;;;4.90;;
77322;SDS011;66384;51.052;9.850;2023-03-01T12:23:39;8.00;;;5.40;;
77322;SDS011;66384;51.052;9.850;2023-03-01T12:26:26;9.60;;;6.00;;
77322;SDS011;66384;51.052;9.850;2023-03-01T12:29:03;7.00;;;5.30;;
77322;SDS011;66384;51.052;9.850;2023-03-01T12:31:52;8.80;;;6.20;;
77322;SDS011;66384;51.052;9.850;2023-03-01T12:34:50;7.30;;;4.60;;
77322;SDS011;66384;51.052;9.850;2023-03-01T12:37:48;7.00;;;4.60;;
77322;SDS011;66384;51.052;9.850;2023-03-01T12:40:33;10.80;;;6.90;;
77322;SDS011;66384;51.052;9.850;2023-03-01T12:43:19;11.10;;;6.30;;
77322;SDS011;66384;51.052;9.850;2023-03-01T12:46:00;11.50;;;7.20;;
77322;SDS011;66384;51.052;9.850;2023-03-01T12:48:40;8.20;;;4.70;;
77322;SDS011;66384;51.052;9.850;2023-03-01T12:51:18;8.30;;;6.30;;
77322;SDS011;66384;51.052;9.850;2023-03-01T12:53:51;9.90;;;6.00;;
77322;SDS011;66384;51.052;9.850;2023-03-01T12:56:24;9.20;;;5.90;;
77322;SDS011;66384;51.052;9.850;2023-03-01T12:58:57;10.30;;;6.30;;
77322;SDS011;66384;51.052;9.850;2023-03-01T13:01:36;10.30;;;6.30;;
77322;SDS011;66384;51.052;9.850;2023-03-01T13:04:23;8.10;;;5.30;;
77322;SDS011;66384;51.052;9.850;2023-03-01T13:07:02;6.60;;;4.40;;
77322;SDS011;66384;51.052;9.850;2023-03-01T13:09:43;8.60;;;5.30;;
77322;SDS011;66384;51.052;9.850;2023-03-01T13:15:27;10.30;;;6.70;;
77322;SDS011;66384;51.052;9.850;2023-03-01T13:18:04;11.40;;;6.00;;
77322;SDS011;66384;51.052;9.850;2023-03-01T13:21:02;9.50;;;6.20;;
77322;SDS011;66384;51.052;9.850;2023-03-01T13:23:36;7.00;;;4.70;;
77322;SDS011;66384;51.052;9.850;2023-03-01T13:26:13;11.20;;;6.50;;
77322;SDS011;66384;51.052;9.850;2023-03-01T13:28:52;7.20;;;4.90;;
77322;SDS011;66384;51.052;9.850;2023-03-01T13:34:52;10.30;;;6.30;;
77322;SDS011;66384;51.052;9.850;2023-03-01T13:37:24;7.90;;;5.00;;
77322;SDS011;66384;51.052;9.850;2023-03-01T13:39:59;8.20;;;5.30;;
77322;SDS011;66384;51.052;9.850;2023-03-01T13:42:33;7.00;;;4.50;;
77322;SDS011;66384;51.052;9.850;2023-03-01T13:45:18;6.60;;;5.10;;
77322;SDS011;66384;51.052;9.850;2023-03-01T13:47:52;6.40;;;4.70;;
77322;SDS011;66384;51.052;9.850;2023-03-01T13:50:27;6.90;;;4.90;;
77322;SDS011;66384;51.052;9.850;2023-03-01T13:53:01;6.90;;;5.00;;
77322;SDS011;66384;51.052;9.850;2023-03-01T13:55:36;6.90;;;4.80;;
77322;SDS011;66384;51.052;9.850;2023-03-01T13:58:15;6.70;;;4.80;;
77322;SDS011;66384;51.052;9.850;2023-03-01T14:00:47;7.70;;;4.90;;
77322;SDS011;66384;51.052;9.850;2023-03-01T14:03:22;6.10;;;4.00;;
77322;SDS011;66384;51.052;9.850;2023-03-01T14:06:00;6.90;;;5.40;;
77322;SDS011;66384;51.052;9.850;2023-03-01T14:08:33;7.20;;;4.70;;
77322;SDS011;66384;51.052;9.850;2023-03-01T14:11:13;7.70;;;4.90;;
77322;SDS011;66384;51.052;9.850;2023-03-01T14:16:58;7.10;;;4.40;;
77322;SDS011;66384;51.052;9.850;2023-03-01T14:19:37;5.70;;;3.80;;
77322;SDS011;66384;51.052;9.850;2023-03-01T14:22:21;7.00;;;4.40;;
77322;SDS011;66384;51.052;9.850;2023-03-01T14:24:54;6.40;;;4.50;;
77322;SDS011;66384;51.052;9.850;2023-03-01T14:27:27;5.60;;;3.60;;
77322;SDS011;66384;51.052;9.850;2023-03-01T14:30:01;10.00;;;5.90;;
77322;SDS011;66384;51.052;9.850;2023-03-01T14:32:38;8.60;;;4.90;;
77322;SDS011;66384;51.052;9.850;2023-03-01T14:35:18;9.50;;;5.80;;
77322;SDS011;66384;51.052;9.850;2023-03-01T14:37:49;7.50;;;4.80;;
77322;SDS011;66384;51.052;9.850;2023-03-01T14:40:23;7.00;;;4.30;;
77322;SDS011;66384;51.052;9.850;2023-03-01T14:42:55;5.10;;;3.70;;
77322;SDS011;66384;51.052;9.850;2023-03-01T14:45:28;13.30;;;8.30;;
77322;SDS011;66384;51.052;9.850;2023-03-01T14:48:00;7.30;;;4.70;;
77322;SDS011;66384;51.052;9.850;2023-03-01T14:50:32;6.50;;;4.30;;
77322;SDS011;66384;51.052;9.850;2023-03-01T14:53:07;7.00;;;3.90;;
77322;SDS011;66384;51.052;9.850;2023-03-01T14:55:47;5.00;;;3.20;;
77322;SDS011;66384;51.052;9.850;2023-03-01T14:58:20;5.50;;;4.20;;
77322;SDS011;66384;51.052;9.850;2023-03-01T15:00:53;6.30;;;3.90;;
77322;SDS011;66384;51.052;9.850;2023-03-01T15:03:25;6.40;;;4.40;;
77322;SDS011;66384;51.052;9.850;2023-03-01T15:05:58;6.10;;;3.60;;
77322;SDS011;66384;51.052;9.850;2023-03-01T15:08:29;9.20;;;5.90;;
77322;SDS011;66384;51.052;9.850;2023-03-01T15:13:32;7.40;;;4.30;;
77322;SDS011;66384;51.052;9.850;2023-03-01T15:16:09;5.40;;;3.30;;
77322;SDS011;66384;51.052;9.850;2023-03-01T15:18:44;5.50;;;3.50;;
77322;SDS011;66384;51.052;9.850;2023-03-01T15:21:19;11.60;;;8.50;;
77322;SDS011;66384;51.052;9.850;2023-03-01T15:23:52;7.50;;;4.90;;
77322;SDS011;66384;51.052;9.850;2023-03-01T15:26:24;8.50;;;4.80;;
77322;SDS011;66384;51.052;9.850;2023-03-01T15:28:56;5.60;;;3.70;;
77322;SDS011;66384;51.052;9.850;2023-03-01T15:31:28;5.50;;;3.70;;
77322;SDS011;66384;51.052;9.850;2023-03-01T15:34:21;6.40;;;4.40;;
77322;SDS011;66384;51.052;9.850;2023-03-01T15:36:53;5.20;;;3.40;;
77322;SDS011;66384;51.052;9.850;2023-03-01T15:39:38;4.60;;;3.20;;
77322;SDS011;66384;51.052;9.850;2023-03-01T15:42:10;7.30;;;4.20;;
77322;SDS011;66384;51.052;9.850;2023-03-01T15:45:09;6.00;;;3.00;;
77322;SDS011;66384;51.052;9.850;2023-03-01T15:47:48;5.50;;;3.20;;